Terminal Aerodrome Forecast
Issued by NWS

Home | Current Version | Previous Version | Text Only | Print | Product List | Glossary On
Versions: 1 2 3 4 5 6 7 8 9 10 11 12 13 14 15
000
FTUS43 KBIS 301143
TAFJMS
TAF
KJMS 301143Z 3012/3112 27006KT P6SM SCT060 SCT100
     FM301500 28012G17KT P6SM FEW060
     FM302000 30015G22KT P6SM SCT090
     FM310100 32011KT P6SM SCT090
     FM310600 29006KT P6SM SKC=

USA.gov is the U.S. government's official web portal to all federal, state and local government web resources and services.